sensor_id;sensor_type;location;lat;lon;timestamp;pressure;altitude;pressure_sealevel;temperature
30765;BMP180;494;48.744;10.106;2023-08-21T00:00:49;96026.00;;;24.10
30765;BMP180;494;48.744;10.106;2023-08-21T00:03:19;96219.00;;;24.10
30765;BMP180;494;48.744;10.106;2023-08-21T00:05:50;96292.00;;;24.20
30765;BMP180;494;48.744;10.106;2023-08-21T00:08:18;96245.00;;;24.30
30765;BMP180;494;48.744;10.106;2023-08-21T00:10:47;96315.00;;;24.30
30765;BMP180;494;48.744;10.106;2023-08-21T00:13:17;96238.00;;;24.20
30765;BMP180;494;48.744;10.106;2023-08-21T00:15:46;96248.00;;;24.20
30765;BMP180;494;48.744;10.106;2023-08-21T00:18:15;96213.00;;;24.20
30765;BMP180;494;48.744;10.106;2023-08-21T00:20:44;95983.00;;;24.30
30765;BMP180;494;48.744;10.106;2023-08-21T00:23:14;96217.00;;;23.80
30765;BMP180;494;48.744;10.106;2023-08-21T00:25:47;96030.00;;;24.20
30765;BMP180;494;48.744;10.106;2023-08-21T00:28:17;96144.00;;;24.10
30765;BMP180;494;48.744;10.106;2023-08-21T00:30:45;96229.00;;;23.90
30765;BMP180;494;48.744;10.106;2023-08-21T00:33:15;96280.00;;;23.90
30765;BMP180;494;48.744;10.106;2023-08-21T00:35:44;96283.00;;;23.20
30765;BMP180;494;48.744;10.106;2023-08-21T00:38:15;96205.00;;;23.80
30765;BMP180;494;48.744;10.106;2023-08-21T00:40:45;96288.00;;;23.90
30765;BMP180;494;48.744;10.106;2023-08-21T00:43:14;96281.00;;;24.00
30765;BMP180;494;48.744;10.106;2023-08-21T00:45:45;96276.00;;;24.10
30765;BMP180;494;48.744;10.106;2023-08-21T00:48:15;96288.00;;;24.10
30765;BMP180;494;48.744;10.106;2023-08-21T00:50:44;96255.00;;;24.00
30765;BMP180;494;48.744;10.106;2023-08-21T00:53:15;96252.00;;;23.80
30765;BMP180;494;48.744;10.106;2023-08-21T00:55:45;96209.00;;;23.90
30765;BMP180;494;48.744;10.106;2023-08-21T00:58:16;96277.00;;;24.00
30765;BMP180;494;48.744;10.106;2023-08-21T01:00:47;96085.00;;;23.80
30765;BMP180;494;48.744;10.106;2023-08-21T01:03:18;96277.00;;;23.70
30765;BMP180;494;48.744;10.106;2023-08-21T01:05:47;96213.00;;;23.90
30765;BMP180;494;48.744;10.106;2023-08-21T01:08:28;96235.00;;;23.40
30765;BMP180;494;48.744;10.106;2023-08-21T01:11:06;96279.00;;;23.60
30765;BMP180;494;48.744;10.106;2023-08-21T01:13:48;96242.00;;;23.70
30765;BMP180;494;48.744;10.106;2023-08-21T01:16:22;96123.00;;;23.80
30765;BMP180;494;48.744;10.106;2023-08-21T01:18:54;96274.00;;;23.50
30765;BMP180;494;48.744;10.106;2023-08-21T01:21:25;96285.00;;;23.70
30765;BMP180;494;48.744;10.106;2023-08-21T01:23:56;96216.00;;;23.50
30765;BMP180;494;48.744;10.106;2023-08-21T01:26:26;96183.00;;;23.40
30765;BMP180;494;48.744;10.106;2023-08-21T01:28:54;96295.00;;;23.70
30765;BMP180;494;48.744;10.106;2023-08-21T01:31:31;96328.00;;;23.60
30765;BMP180;494;48.744;10.106;2023-08-21T01:34:06;96292.00;;;23.50
30765;BMP180;494;48.744;10.106;2023-08-21T01:36:36;96222.00;;;23.40
30765;BMP180;494;48.744;10.106;2023-08-21T01:39:07;96227.00;;;23.10
30765;BMP180;494;48.744;10.106;2023-08-21T01:41:36;96173.00;;;23.50
30765;BMP180;494;48.744;10.106;2023-08-21T01:44:05;96264.00;;;23.60
30765;BMP180;494;48.744;10.106;2023-08-21T01:46:35;96012.00;;;23.50
30765;BMP180;494;48.744;10.106;2023-08-21T01:49:04;96231.00;;;23.40
30765;BMP180;494;48.744;10.106;2023-08-21T01:51:32;96218.00;;;23.10
30765;BMP180;494;48.744;10.106;2023-08-21T01:54:01;96196.00;;;23.40
30765;BMP180;494;48.744;10.106;2023-08-21T01:56:31;96017.00;;;23.50
30765;BMP180;494;48.744;10.106;2023-08-21T01:59:00;96185.00;;;23.20
30765;BMP180;494;48.744;10.106;2023-08-21T02:01:29;96271.00;;;23.30
30765;BMP180;494;48.744;10.106;2023-08-21T02:03:58;96127.00;;;23.30
30765;BMP180;494;48.744;10.106;2023-08-21T02:06:27;96283.00;;;23.40
30765;BMP180;494;48.744;10.106;2023-08-21T02:08:56;96182.00;;;23.30
30765;BMP180;494;48.744;10.106;2023-08-21T02:11:25;96205.00;;;23.20
30765;BMP180;494;48.744;10.106;2023-08-21T02:13:57;96179.00;;;23.30
30765;BMP180;494;48.744;10.106;2023-08-21T02:16:28;96229.00;;;22.30
30765;BMP180;494;48.744;10.106;2023-08-21T02:18:58;96279.00;;;23.40
30765;BMP180;494;48.744;10.106;2023-08-21T02:21:26;96169.00;;;23.10
30765;BMP180;494;48.744;10.106;2023-08-21T02:23:55;96221.00;;;22.90
30765;BMP180;494;48.744;10.106;2023-08-21T02:26:24;96268.00;;;23.40
30765;BMP180;494;48.744;10.106;2023-08-21T02:28:53;95995.00;;;23.30
30765;BMP180;494;48.744;10.106;2023-08-21T02:31:23;96236.00;;;23.20
30765;BMP180;494;48.744;10.106;2023-08-21T02:33:52;95984.00;;;23.30
30765;BMP180;494;48.744;10.106;2023-08-21T02:36:21;96217.00;;;22.80
30765;BMP180;494;48.744;10.106;2023-08-21T02:38:50;96317.00;;;23.30
30765;BMP180;494;48.744;10.106;2023-08-21T02:41:19;96214.00;;;22.80
30765;BMP180;494;48.744;10.106;2023-08-21T02:43:47;96240.00;;;23.10
30765;BMP180;494;48.744;10.106;2023-08-21T02:46:16;96212.00;;;23.10
30765;BMP180;494;48.744;10.106;2023-08-21T02:48:49;96217.00;;;23.20
30765;BMP180;494;48.744;10.106;2023-08-21T02:51:18;96217.00;;;23.20
30765;BMP180;494;48.744;10.106;2023-08-21T02:53:47;96240.00;;;23.20
30765;BMP180;494;48.744;10.106;2023-08-21T02:56:16;96143.00;;;23.00
30765;BMP180;494;48.744;10.106;2023-08-21T02:58:44;96192.00;;;22.90
30765;BMP180;494;48.744;10.106;2023-08-21T03:01:18;96275.00;;;23.30
30765;BMP180;494;48.744;10.106;2023-08-21T03:03:53;96199.00;;;22.50
30765;BMP180;494;48.744;10.106;2023-08-21T03:06:22;96269.00;;;23.10
30765;BMP180;494;48.744;10.106;2023-08-21T03:08:50;96238.00;;;23.10
30765;BMP180;494;48.744;10.106;2023-08-21T03:11:20;96254.00;;;23.10
30765;BMP180;494;48.744;10.106;2023-08-21T03:13:49;96221.00;;;22.80
30765;BMP180;494;48.744;10.106;2023-08-21T03:16:17;96263.00;;;23.00
30765;BMP180;494;48.744;10.106;2023-08-21T03:18:58;96169.00;;;23.10
30765;BMP180;494;48.744;10.106;2023-08-21T03:21:28;96194.00;;;22.90
30765;BMP180;494;48.744;10.106;2023-08-21T03:23:58;96154.00;;;22.80
30765;BMP180;494;48.744;10.106;2023-08-21T03:26:31;96034.00;;;23.00
30765;BMP180;494;48.744;10.106;2023-08-21T03:29:00;96099.00;;;22.90
30765;BMP180;494;48.744;10.106;2023-08-21T03:31:30;96259.00;;;22.70
30765;BMP180;494;48.744;10.106;2023-08-21T03:34:01;96267.00;;;22.70
30765;BMP180;494;48.744;10.106;2023-08-21T03:36:30;96292.00;;;22.50
30765;BMP180;494;48.744;10.106;2023-08-21T03:38:59;96160.00;;;22.90
30765;BMP180;494;48.744;10.106;2023-08-21T03:41:28;96261.00;;;22.80
30765;BMP180;494;48.744;10.106;2023-08-21T03:43:58;96193.00;;;22.80
30765;BMP180;494;48.744;10.106;2023-08-21T03:46:27;96264.00;;;22.80
30765;BMP180;494;48.744;10.106;2023-08-21T03:48:56;96198.00;;;22.60
30765;BMP180;494;48.744;10.106;2023-08-21T03:51:28;96387.00;;;22.20
30765;BMP180;494;48.744;10.106;2023-08-21T03:53:57;96217.00;;;22.50
30765;BMP180;494;48.744;10.106;2023-08-21T03:56:25;96141.00;;;22.10
30765;BMP180;494;48.744;10.106;2023-08-21T03:58:54;95937.00;;;22.50
30765;BMP180;494;48.744;10.106;2023-08-21T04:01:24;96187.00;;;22.80
30765;BMP180;494;48.744;10.106;2023-08-21T04:03:53;96170.00;;;22.70
30765;BMP180;494;48.744;10.106;2023-08-21T04:06:23;96271.00;;;22.80
30765;BMP180;494;48.744;10.106;2023-08-21T04:08:54;96176.00;;;22.50
30765;BMP180;494;48.744;10.106;2023-08-21T04:11:23;96266.00;;;22.80
30765;BMP180;494;48.744;10.106;2023-08-21T04:13:52;96217.00;;;22.40
30765;BMP180;494;48.744;10.106;2023-08-21T04:16:21;96012.00;;;22.50
30765;BMP180;494;48.744;10.106;2023-08-21T04:18:50;96274.00;;;22.70
30765;BMP180;494;48.744;10.106;2023-08-21T04:21:20;96272.00;;;22.60
30765;BMP180;494;48.744;10.106;2023-08-21T04:23:51;96215.00;;;22.70
30765;BMP180;494;48.744;10.106;2023-08-21T04:26:22;96156.00;;;22.70
30765;BMP180;494;48.744;10.106;2023-08-21T04:28:51;96274.00;;;22.60
30765;BMP180;494;48.744;10.106;2023-08-21T04:31:23;96280.00;;;22.30
30765;BMP180;494;48.744;10.106;2023-08-21T04:33:52;96301.00;;;22.90
30765;BMP180;494;48.744;10.106;2023-08-21T04:36:21;96232.00;;;22.50
30765;BMP180;494;48.744;10.106;2023-08-21T04:38:50;96159.00;;;22.50
30765;BMP180;494;48.744;10.106;2023-08-21T04:41:21;96283.00;;;22.50
30765;BMP180;494;48.744;10.106;2023-08-21T04:43:50;96188.00;;;22.20
30765;BMP180;494;48.744;10.106;2023-08-21T04:46:18;96289.00;;;22.40
30765;BMP180;494;48.744;10.106;2023-08-21T04:48:48;96173.00;;;22.40
30765;BMP180;494;48.744;10.106;2023-08-21T04:51:17;96300.00;;;22.70
30765;BMP180;494;48.744;10.106;2023-08-21T04:53:48;96000.00;;;22.60
30765;BMP180;494;48.744;10.106;2023-08-21T04:56:20;96310.00;;;21.70
30765;BMP180;494;48.744;10.106;2023-08-21T04:58:49;96303.00;;;22.90
30765;BMP180;494;48.744;10.106;2023-08-21T05:01:18;96173.00;;;22.90
30765;BMP180;494;48.744;10.106;2023-08-21T05:03:53;96255.00;;;22.80
30765;BMP180;494;48.744;10.106;2023-08-21T05:06:22;96221.00;;;22.70
30765;BMP180;494;48.744;10.106;2023-08-21T05:08:51;96215.00;;;22.10
30765;BMP180;494;48.744;10.106;2023-08-21T05:11:22;96303.00;;;22.70
30765;BMP180;494;48.744;10.106;2023-08-21T05:13:53;96310.00;;;22.50
30765;BMP180;494;48.744;10.106;2023-08-21T05:16:23;96054.00;;;22.50
30765;BMP180;494;48.744;10.106;2023-08-21T05:18:52;96264.00;;;23.00
30765;BMP180;494;48.744;10.106;2023-08-21T05:21:20;96297.00;;;22.80
30765;BMP180;494;48.744;10.106;2023-08-21T05:23:49;96291.00;;;22.90
30765;BMP180;494;48.744;10.106;2023-08-21T05:26:19;96299.00;;;23.10
30765;BMP180;494;48.744;10.106;2023-08-21T05:28:49;96262.00;;;23.30
30765;BMP180;494;48.744;10.106;2023-08-21T05:31:18;96133.00;;;21.80
30765;BMP180;494;48.744;10.106;2023-08-21T05:33:47;96249.00;;;23.40
30765;BMP180;494;48.744;10.106;2023-08-21T05:36:16;96308.00;;;23.50
30765;BMP180;494;48.744;10.106;2023-08-21T05:38:45;96308.00;;;23.50
30765;BMP180;494;48.744;10.106;2023-08-21T05:41:17;96214.00;;;23.60
30765;BMP180;494;48.744;10.106;2023-08-21T05:43:46;96318.00;;;23.60
30765;BMP180;494;48.744;10.106;2023-08-21T05:46:18;96235.00;;;23.70
30765;BMP180;494;48.744;10.106;2023-08-21T05:48:48;96147.00;;;23.20
30765;BMP180;494;48.744;10.106;2023-08-21T05:51:17;96068.00;;;23.90
30765;BMP180;494;48.744;10.106;2023-08-21T05:53:47;96306.00;;;24.00
30765;BMP180;494;48.744;10.106;2023-08-21T05:56:17;96201.00;;;23.60
30765;BMP180;494;48.744;10.106;2023-08-21T05:58:46;96309.00;;;24.00
30765;BMP180;494;48.744;10.106;2023-08-21T06:01:19;96243.00;;;23.60
30765;BMP180;494;48.744;10.106;2023-08-21T06:03:48;96352.00;;;24.30
30765;BMP180;494;48.744;10.106;2023-08-21T06:06:17;96219.00;;;23.70
30765;BMP180;494;48.744;10.106;2023-08-21T06:08:46;96088.00;;;24.50
30765;BMP180;494;48.744;10.106;2023-08-21T06:11:15;96300.00;;;24.70
30765;BMP180;494;48.744;10.106;2023-08-21T06:13:50;96304.00;;;24.80
30765;BMP180;494;48.744;10.106;2023-08-21T06:16:20;96316.00;;;25.10
30765;BMP180;494;48.744;10.106;2023-08-21T06:18:49;96307.00;;;25.20
30765;BMP180;494;48.744;10.106;2023-08-21T06:21:18;96279.00;;;25.00
30765;BMP180;494;48.744;10.106;2023-08-21T06:23:47;96313.00;;;25.50
30765;BMP180;494;48.744;10.106;2023-08-21T06:26:16;96321.00;;;25.40
30765;BMP180;494;48.744;10.106;2023-08-21T06:28:45;96318.00;;;25.80
30765;BMP180;494;48.744;10.106;2023-08-21T06:31:13;96262.00;;;25.70
30765;BMP180;494;48.744;10.106;2023-08-21T06:33:44;96106.00;;;25.90
30765;BMP180;494;48.744;10.106;2023-08-21T06:36:13;96103.00;;;26.30
30765;BMP180;494;48.744;10.106;2023-08-21T06:38:42;96326.00;;;26.50
30765;BMP180;494;48.744;10.106;2023-08-21T06:41:13;96330.00;;;26.60
30765;BMP180;494;48.744;10.106;2023-08-21T06:43:42;96324.00;;;26.70
30765;BMP180;494;48.744;10.106;2023-08-21T06:46:13;96324.00;;;26.90
30765;BMP180;494;48.744;10.106;2023-08-21T06:48:44;96257.00;;;26.90
30765;BMP180;494;48.744;10.106;2023-08-21T06:51:14;96331.00;;;26.70
30765;BMP180;494;48.744;10.106;2023-08-21T06:53:44;96331.00;;;27.10
30765;BMP180;494;48.744;10.106;2023-08-21T06:56:13;96339.00;;;26.80
30765;BMP180;494;48.744;10.106;2023-08-21T06:58:42;96223.00;;;27.60
30765;BMP180;494;48.744;10.106;2023-08-21T07:01:11;96323.00;;;27.70
30765;BMP180;494;48.744;10.106;2023-08-21T07:03:39;96336.00;;;27.90
30765;BMP180;494;48.744;10.106;2023-08-21T07:06:10;96138.00;;;28.00
30765;BMP180;494;48.744;10.106;2023-08-21T07:08:38;96268.00;;;27.80
30765;BMP180;494;48.744;10.106;2023-08-21T07:11:08;96339.00;;;28.10
30765;BMP180;494;48.744;10.106;2023-08-21T07:13:38;96260.00;;;28.30
30765;BMP180;494;48.744;10.106;2023-08-21T07:16:07;96202.00;;;28.30
30765;BMP180;494;48.744;10.106;2023-08-21T07:18:38;96313.00;;;28.80
30765;BMP180;494;48.744;10.106;2023-08-21T07:21:09;96343.00;;;29.10
30765;BMP180;494;48.744;10.106;2023-08-21T07:23:57;96144.00;;;29.30
30765;BMP180;494;48.744;10.106;2023-08-21T07:26:27;96340.00;;;29.30
30765;BMP180;494;48.744;10.106;2023-08-21T07:28:57;96302.00;;;29.50
30765;BMP180;494;48.744;10.106;2023-08-21T07:31:26;96287.00;;;29.20
30765;BMP180;494;48.744;10.106;2023-08-21T07:33:56;96344.00;;;29.60
30765;BMP180;494;48.744;10.106;2023-08-21T07:36:26;96310.00;;;29.80
30765;BMP180;494;48.744;10.106;2023-08-21T07:38:57;96351.00;;;29.80
30765;BMP180;494;48.744;10.106;2023-08-21T07:41:26;96313.00;;;30.10
30765;BMP180;494;48.744;10.106;2023-08-21T07:43:56;96328.00;;;30.00
30765;BMP180;494;48.744;10.106;2023-08-21T07:46:28;96116.00;;;30.40
30765;BMP180;494;48.744;10.106;2023-08-21T07:48:57;96293.00;;;30.10
30765;BMP180;494;48.744;10.106;2023-08-21T07:51:27;96363.00;;;30.80
30765;BMP180;494;48.744;10.106;2023-08-21T07:53:56;96146.00;;;30.70
30765;BMP180;494;48.744;10.106;2023-08-21T07:56:27;96384.00;;;31.00
30765;BMP180;494;48.744;10.106;2023-08-21T07:58:56;96271.00;;;31.00
30765;BMP180;494;48.744;10.106;2023-08-21T08:01:25;96364.00;;;31.10
30765;BMP180;494;48.744;10.106;2023-08-21T08:03:55;96294.00;;;31.20
30765;BMP180;494;48.744;10.106;2023-08-21T08:06:26;96335.00;;;31.30
30765;BMP180;494;48.744;10.106;2023-08-21T08:08:55;96210.00;;;31.10
30765;BMP180;494;48.744;10.106;2023-08-21T08:11:24;96376.00;;;31.80
30765;BMP180;494;48.744;10.106;2023-08-21T08:13:54;96331.00;;;31.70
30765;BMP180;494;48.744;10.106;2023-08-21T08:16:24;96302.00;;;31.60
30765;BMP180;494;48.744;10.106;2023-08-21T08:18:54;96290.00;;;32.10
30765;BMP180;494;48.744;10.106;2023-08-21T08:21:23;96371.00;;;31.90
30765;BMP180;494;48.744;10.106;2023-08-21T08:23:54;96211.00;;;32.30
30765;BMP180;494;48.744;10.106;2023-08-21T08:26:22;96256.00;;;32.30
30765;BMP180;494;48.744;10.106;2023-08-21T08:28:52;96367.00;;;32.50
30765;BMP180;494;48.744;10.106;2023-08-21T08:31:21;96311.00;;;32.40
30765;BMP180;494;48.744;10.106;2023-08-21T08:33:51;96291.00;;;32.40
30765;BMP180;494;48.744;10.106;2023-08-21T08:36:20;96322.00;;;32.60
30765;BMP180;494;48.744;10.106;2023-08-21T08:38:49;96369.00;;;33.00
30765;BMP180;494;48.744;10.106;2023-08-21T08:41:27;96373.00;;;33.10
30765;BMP180;494;48.744;10.106;2023-08-21T08:44:01;96157.00;;;33.00
30765;BMP180;494;48.744;10.106;2023-08-21T08:46:32;96373.00;;;33.40
30765;BMP180;494;48.744;10.106;2023-08-21T08:49:04;96316.00;;;33.40
30765;BMP180;494;48.744;10.106;2023-08-21T08:51:39;96370.00;;;33.30
30765;BMP180;494;48.744;10.106;2023-08-21T08:54:14;96371.00;;;32.50
30765;BMP180;494;48.744;10.106;2023-08-21T08:56:51;96373.00;;;33.80
30765;BMP180;494;48.744;10.106;2023-08-21T08:59:20;96370.00;;;33.90
30765;BMP180;494;48.744;10.106;2023-08-21T09:01:49;96407.00;;;34.20
30765;BMP180;494;48.744;10.106;2023-08-21T09:04:17;96374.00;;;34.30
30765;BMP180;494;48.744;10.106;2023-08-21T09:06:47;96380.00;;;34.70
30765;BMP180;494;48.744;10.106;2023-08-21T09:09:17;96353.00;;;34.60
30765;BMP180;494;48.744;10.106;2023-08-21T09:11:47;96376.00;;;34.60
30765;BMP180;494;48.744;10.106;2023-08-21T09:14:26;96338.00;;;34.70
30765;BMP180;494;48.744;10.106;2023-08-21T09:17:01;96380.00;;;34.90
30765;BMP180;494;48.744;10.106;2023-08-21T09:19:32;96381.00;;;35.10
30765;BMP180;494;48.744;10.106;2023-08-21T09:22:09;96385.00;;;35.20
30765;BMP180;494;48.744;10.106;2023-08-21T09:24:39;96383.00;;;34.70
30765;BMP180;494;48.744;10.106;2023-08-21T09:27:15;96383.00;;;35.40
30765;BMP180;494;48.744;10.106;2023-08-21T09:29:52;96375.00;;;35.40
30765;BMP180;494;48.744;10.106;2023-08-21T09:32:24;96374.00;;;35.40
30765;BMP180;494;48.744;10.106;2023-08-21T09:34:56;96181.00;;;35.60
30765;BMP180;494;48.744;10.106;2023-08-21T09:37:32;96326.00;;;35.80
30765;BMP180;494;48.744;10.106;2023-08-21T09:40:01;96338.00;;;35.80
30765;BMP180;494;48.744;10.106;2023-08-21T09:42:34;96408.00;;;35.60
30765;BMP180;494;48.744;10.106;2023-08-21T09:45:06;96195.00;;;36.00
30765;BMP180;494;48.744;10.106;2023-08-21T09:47:36;96384.00;;;36.20
30765;BMP180;494;48.744;10.106;2023-08-21T09:50:08;96366.00;;;36.30
30765;BMP180;494;48.744;10.106;2023-08-21T09:52:37;96287.00;;;36.20
30765;BMP180;494;48.744;10.106;2023-08-21T09:55:07;96315.00;;;36.00
30765;BMP180;494;48.744;10.106;2023-08-21T09:57:38;96330.00;;;36.00
30765;BMP180;494;48.744;10.106;2023-08-21T10:00:11;96302.00;;;36.20
30765;BMP180;494;48.744;10.106;2023-08-21T10:02:47;96328.00;;;36.30
30765;BMP180;494;48.744;10.106;2023-08-21T10:05:18;96362.00;;;36.30
30765;BMP180;494;48.744;10.106;2023-08-21T10:07:49;96318.00;;;36.10
30765;BMP180;494;48.744;10.106;2023-08-21T10:10:18;96287.00;;;36.20
30765;BMP180;494;48.744;10.106;2023-08-21T10:12:48;96308.00;;;36.50
30765;BMP180;494;48.744;10.106;2023-08-21T10:15:19;96361.00;;;36.60
30765;BMP180;494;48.744;10.106;2023-08-21T10:17:48;96361.00;;;36.70
30765;BMP180;494;48.744;10.106;2023-08-21T10:20:22;96358.00;;;36.80
30765;BMP180;494;48.744;10.106;2023-08-21T10:22:55;96303.00;;;36.60
30765;BMP180;494;48.744;10.106;2023-08-21T10:25:29;96310.00;;;36.70
30765;BMP180;494;48.744;10.106;2023-08-21T10:28:00;96351.00;;;37.10
30765;BMP180;494;48.744;10.106;2023-08-21T10:30:32;96219.00;;;37.30
30765;BMP180;494;48.744;10.106;2023-08-21T10:33:01;96297.00;;;37.40
30765;BMP180;494;48.744;10.106;2023-08-21T10:35:31;96300.00;;;37.50
30765;BMP180;494;48.744;10.106;2023-08-21T10:38:10;96345.00;;;37.40
30765;BMP180;494;48.744;10.106;2023-08-21T10:40:41;96350.00;;;37.40
30765;BMP180;494;48.744;10.106;2023-08-21T10:43:40;96346.00;;;37.40
30765;BMP180;494;48.744;10.106;2023-08-21T10:46:11;96351.00;;;37.70
30765;BMP180;494;48.744;10.106;2023-08-21T10:48:40;96341.00;;;37.90
30765;BMP180;494;48.744;10.106;2023-08-21T10:51:10;96311.00;;;37.90
30765;BMP180;494;48.744;10.106;2023-08-21T10:53:40;96306.00;;;38.10
30765;BMP180;494;48.744;10.106;2023-08-21T10:56:10;96274.00;;;38.10
30765;BMP180;494;48.744;10.106;2023-08-21T10:58:41;96316.00;;;38.10
30765;BMP180;494;48.744;10.106;2023-08-21T11:01:14;96175.00;;;38.40
30765;BMP180;494;48.744;10.106;2023-08-21T11:03:46;96274.00;;;38.20
30765;BMP180;494;48.744;10.106;2023-08-21T11:06:19;96344.00;;;38.60
30765;BMP180;494;48.744;10.106;2023-08-21T11:08:48;96242.00;;;38.80
30765;BMP180;494;48.744;10.106;2023-08-21T11:11:19;96294.00;;;38.70
30765;BMP180;494;48.744;10.106;2023-08-21T11:13:53;96313.00;;;38.80
30765;BMP180;494;48.744;10.106;2023-08-21T11:16:25;96349.00;;;38.60
30765;BMP180;494;48.744;10.106;2023-08-21T11:18:54;96346.00;;;38.70
30765;BMP180;494;48.744;10.106;2023-08-21T11:21:23;96255.00;;;39.10
30765;BMP180;494;48.744;10.106;2023-08-21T11:23:53;96333.00;;;39.20
30765;BMP180;494;48.744;10.106;2023-08-21T11:26:22;96298.00;;;39.10
30765;BMP180;494;48.744;10.106;2023-08-21T11:28:56;96307.00;;;39.40
30765;BMP180;494;48.744;10.106;2023-08-21T11:31:27;96319.00;;;39.60
30765;BMP180;494;48.744;10.106;2023-08-21T11:33:58;96182.00;;;39.80
30765;BMP180;494;48.744;10.106;2023-08-21T11:36:44;96310.00;;;39.70
30765;BMP180;494;48.744;10.106;2023-08-21T11:39:13;96248.00;;;40.00
30765;BMP180;494;48.744;10.106;2023-08-21T11:41:58;96153.00;;;40.00
30765;BMP180;494;48.744;10.106;2023-08-21T11:44:29;96339.00;;;40.20
30765;BMP180;494;48.744;10.106;2023-08-21T11:47:00;96274.00;;;40.20
30765;BMP180;494;48.744;10.106;2023-08-21T11:49:30;96347.00;;;40.30
30765;BMP180;494;48.744;10.106;2023-08-21T11:52:01;96337.00;;;39.60
30765;BMP180;494;48.744;10.106;2023-08-21T11:54:33;96282.00;;;39.20
30765;BMP180;494;48.744;10.106;2023-08-21T11:57:08;96269.00;;;39.00
30765;BMP180;494;48.744;10.106;2023-08-21T11:59:37;96363.00;;;38.60
30765;BMP180;494;48.744;10.106;2023-08-21T12:02:22;96312.00;;;38.10
30765;BMP180;494;48.744;10.106;2023-08-21T12:05:01;96326.00;;;38.10
30765;BMP180;494;48.744;10.106;2023-08-21T12:07:30;96332.00;;;38.40
30765;BMP180;494;48.744;10.106;2023-08-21T12:09:59;96306.00;;;38.20
30765;BMP180;494;48.744;10.106;2023-08-21T12:12:28;96327.00;;;39.00
30765;BMP180;494;48.744;10.106;2023-08-21T12:14:58;96328.00;;;38.80
30765;BMP180;494;48.744;10.106;2023-08-21T12:17:28;95982.00;;;38.70
30765;BMP180;494;48.744;10.106;2023-08-21T12:19:58;96257.00;;;38.80
30765;BMP180;494;48.744;10.106;2023-08-21T12:22:28;96322.00;;;39.30
30765;BMP180;494;48.744;10.106;2023-08-21T12:24:58;96216.00;;;39.30
30765;BMP180;494;48.744;10.106;2023-08-21T12:27:28;96264.00;;;39.90
30765;BMP180;494;48.744;10.106;2023-08-21T12:29:57;96291.00;;;40.60
30765;BMP180;494;48.744;10.106;2023-08-21T12:32:28;96350.00;;;40.60
30765;BMP180;494;48.744;10.106;2023-08-21T12:34:57;96119.00;;;40.40
30765;BMP180;494;48.744;10.106;2023-08-21T12:37:26;96304.00;;;39.90
30765;BMP180;494;48.744;10.106;2023-08-21T12:39:54;96354.00;;;39.10
30765;BMP180;494;48.744;10.106;2023-08-21T12:42:23;96252.00;;;39.90
30765;BMP180;494;48.744;10.106;2023-08-21T12:44:52;96316.00;;;40.00
30765;BMP180;494;48.744;10.106;2023-08-21T12:47:21;96318.00;;;40.20
30765;BMP180;494;48.744;10.106;2023-08-21T12:49:52;96150.00;;;40.30
30765;BMP180;494;48.744;10.106;2023-08-21T12:52:22;96029.00;;;40.60
30765;BMP180;494;48.744;10.106;2023-08-21T12:54:51;96248.00;;;41.00
30765;BMP180;494;48.744;10.106;2023-08-21T12:57:20;96306.00;;;41.00
30765;BMP180;494;48.744;10.106;2023-08-21T12:59:49;96327.00;;;41.30
30765;BMP180;494;48.744;10.106;2023-08-21T13:02:19;96316.00;;;41.00
30765;BMP180;494;48.744;10.106;2023-08-21T13:04:48;96315.00;;;40.10
30765;BMP180;494;48.744;10.106;2023-08-21T13:07:23;96273.00;;;39.90
30765;BMP180;494;48.744;10.106;2023-08-21T13:09:51;96301.00;;;39.70
30765;BMP180;494;48.744;10.106;2023-08-21T13:12:20;96201.00;;;40.20
30765;BMP180;494;48.744;10.106;2023-08-21T13:14:49;96219.00;;;40.40
30765;BMP180;494;48.744;10.106;2023-08-21T13:17:19;96313.00;;;40.70
30765;BMP180;494;48.744;10.106;2023-08-21T13:19:48;96268.00;;;40.20
30765;BMP180;494;48.744;10.106;2023-08-21T13:22:17;96346.00;;;40.40
30765;BMP180;494;48.744;10.106;2023-08-21T13:24:47;96266.00;;;40.10
30765;BMP180;494;48.744;10.106;2023-08-21T13:27:17;96320.00;;;40.70
30765;BMP180;494;48.744;10.106;2023-08-21T13:29:46;96301.00;;;40.90
30765;BMP180;494;48.744;10.106;2023-08-21T13:32:15;96313.00;;;40.90
30765;BMP180;494;48.744;10.106;2023-08-21T13:34:45;96294.00;;;41.10
30765;BMP180;494;48.744;10.106;2023-08-21T13:37:13;96289.00;;;41.10
30765;BMP180;494;48.744;10.106;2023-08-21T13:39:42;96222.00;;;41.20
30765;BMP180;494;48.744;10.106;2023-08-21T13:42:12;96304.00;;;41.30
30765;BMP180;494;48.744;10.106;2023-08-21T13:44:41;96255.00;;;40.80
30765;BMP180;494;48.744;10.106;2023-08-21T13:47:10;96352.00;;;40.50
30765;BMP180;494;48.744;10.106;2023-08-21T13:49:40;96298.00;;;41.40
30765;BMP180;494;48.744;10.106;2023-08-21T13:52:08;96271.00;;;42.00
30765;BMP180;494;48.744;10.106;2023-08-21T13:54:37;96243.00;;;42.00
30765;BMP180;494;48.744;10.106;2023-08-21T13:57:07;96272.00;;;41.90
30765;BMP180;494;48.744;10.106;2023-08-21T13:59:38;96277.00;;;42.40
30765;BMP180;494;48.744;10.106;2023-08-21T14:02:07;96235.00;;;42.10
30765;BMP180;494;48.744;10.106;2023-08-21T14:04:36;96236.00;;;42.20
30765;BMP180;494;48.744;10.106;2023-08-21T14:07:05;96065.00;;;42.20
30765;BMP180;494;48.744;10.106;2023-08-21T14:09:34;96275.00;;;42.70
30765;BMP180;494;48.744;10.106;2023-08-21T14:12:04;96229.00;;;42.60
30765;BMP180;494;48.744;10.106;2023-08-21T14:14:35;96271.00;;;42.60
30765;BMP180;494;48.744;10.106;2023-08-21T14:17:09;96276.00;;;42.90
30765;BMP180;494;48.744;10.106;2023-08-21T14:19:39;96227.00;;;42.60
30765;BMP180;494;48.744;10.106;2023-08-21T14:22:08;96219.00;;;42.90
30765;BMP180;494;48.744;10.106;2023-08-21T14:24:37;96170.00;;;43.20
30765;BMP180;494;48.744;10.106;2023-08-21T14:27:07;96271.00;;;43.30
30765;BMP180;494;48.744;10.106;2023-08-21T14:29:36;96254.00;;;43.80
30765;BMP180;494;48.744;10.106;2023-08-21T14:32:06;96263.00;;;43.50
30765;BMP180;494;48.744;10.106;2023-08-21T14:34:35;96221.00;;;43.70
30765;BMP180;494;48.744;10.106;2023-08-21T14:37:05;96271.00;;;44.20
30765;BMP180;494;48.744;10.106;2023-08-21T14:39:34;96176.00;;;44.20